• Join FlightAware (Why Join?)
  • Login
  • US Flag 
03:25AM EDT


 

Airport Tracker/Info


-or-


 

Live Flight TrackerFlight Track Log ✈ N121SP ✈ 06-Jul-2013 ✈ MYLS / SML - KAPF

Flight Track Log - Related Links

Times and Time Zones

All times are in EDT time to prevent confusion due to time zone crossing. See the N121SP flight status page for this flight to view local times or setup timezone preferences in your user account.

Time Position Orientation Groundspeed Altitude Reporting Facility
EDT Latitude Longitude Course Direction KTS MPH feet Rate Location/Type
03:05PM 23.7022 -75.5200 289° West 178 205 4,100  Level Miami Center
03:06PM 23.7150 -75.5606 289° West 168 193 4,900 660 Climbing Miami Center
03:07PM 23.7258 -75.5992 287° West 146 168 5,500 600 Climbing Miami Center
03:08PM 23.7386 -75.6400 289° West 146 168 6,200 600 Climbing Miami Center
03:09PM 23.7536 -75.6806 292° West 146 168 6,800 600 Climbing Miami Center
03:10PM 23.7664 -75.7236 288° West 146 168 7,400 540 Climbing Miami Center
03:11PM 23.6809 -75.5668 289° West  Level FlightAware Approximate
03:11PM 23.7794 -75.7644 289° West 146 168 7,900  Level Miami Center
03:12PM 23.7900 -75.8031 287° West 146 168 8,500 540 Climbing Miami Center
03:13PM 23.8028 -75.8414 290° West 146 168 9,000 480 Climbing Miami Center
03:14PM 23.8158 -75.8800 290° West 146 168 9,500 480 Climbing Miami Center
03:15PM 23.8286 -75.9183 290° West 146 168 10,000 420 Climbing Miami Center
03:16PM 23.8414 -75.9592 289° West 146 168 10,400 420 Climbing Miami Center
03:17PM 23.8519 -75.9956 288° West 146 168 10,900 420 Climbing Miami Center
03:18PM 23.8647 -76.0342 290° West 146 168 11,300 420 Climbing Miami Center
03:19PM 23.8753 -76.0681 289° West 141 162 11,800 360 Climbing Miami Center
03:20PM 23.8858 -76.1019 289° West 128 147 12,100 180 Climbing Miami Center
03:21PM 23.9008 -76.1428 292° West 133 153 12,200  Climbing Miami Center
03:22PM 23.9156 -76.1906 289° West 151 174 12,100  Descending Miami Center
03:23PM 23.9306 -76.2428 287° West 164 189 12,200  Climbing Miami Center
03:24PM 23.9453 -76.2906 289° West 169 194 12,100 -60 Descending Miami Center
03:25PM 23.9622 -76.3428 290° West 174 200 12,100  Level Miami Center
03:26PM 23.9769 -76.3928 288° West 174 200 12,200  Climbing Miami Center
03:27PM 23.9961 -76.4425 293° West 174 200 12,200  Level Miami Center
03:28PM 24.0086 -76.4903 286° West 169 194 12,200  Level Miami Center
03:29PM 24.0233 -76.5381 289° West 163 188 12,200  Level Miami Center
03:30PM 24.0403 -76.5836 292° West 163 188 12,200  Level Miami Center
03:31PM 24.0528 -76.6314 286° West 163 188 12,200  Level Miami Center
03:32PM 24.0675 -76.6792 289° West 163 188 12,200  Level Miami Center
03:33PM 24.0822 -76.7269 289° West 163 188 12,200  Level Miami Center
03:34PM 24.0947 -76.7725 287° West 163 188 12,200  Level Miami Center
03:35PM 24.1117 -76.8178 292° West 163 188 12,200  Level Miami Center
03:36PM 24.1261 -76.8633 289° West 163 188 12,200 -60 Level Miami Center
03:37PM 24.1408 -76.9111 289° West 163 188 12,100  Descending Miami Center
03:38PM 24.1553 -76.9592 288° West 163 188 12,200  Climbing Miami Center
03:39PM 24.1722 -77.0000 294° West 163 188 12,200 -60 Level Miami Center
03:40PM 24.1867 -77.0481 288° West 163 188 12,100  Descending Miami Center
03:41PM 24.2011 -77.0958 288° West 163 188 12,200  Climbing Miami Center
03:42PM 24.2158 -77.1436 289° West 169 194 12,200 -60 Level Miami Center
03:43PM 24.2303 -77.1939 287° West 164 189 12,100  Descending Miami Center
03:44PM 24.2447 -77.2394 289° West 164 189 12,200  Climbing Miami Center
03:45PM 24.2594 -77.2875 289° West 164 189 12,200 -60 Level Miami Center
03:46PM 24.2739 -77.3400 287° West 169 194 12,100 -60 Descending Miami Center
03:47PM 24.2903 -77.3878 291° West 169 194 12,100  Level Miami Center
03:48PM 24.3047 -77.4381 288° West 169 194 12,100  Level Miami Center
03:49PM 24.3192 -77.4861 288° West 169 194 12,100  Level Miami Center
03:50PM 24.3358 -77.5317 292° West 164 189 12,100  Level Miami Center
03:51PM 24.3503 -77.5797 288° West 164 189 12,100  Level Miami Center
03:52PM 24.3644 -77.6300 287° West 164 189 12,100  Level Miami Center
03:53PM 24.3789 -77.6781 288° West 164 189 12,100  Level Miami Center
03:54PM 24.3933 -77.7258 288° West 164 189 12,100  Level Miami Center
03:55PM 24.4097 -77.7739 291° West 164 189 12,100  Level Miami Center
03:56PM 24.4242 -77.8242 288° West 169 194 12,100  Level Miami Center
03:57PM 24.4383 -77.8722 288° West 163 188 12,100  Level Miami Center
03:58PM 24.4528 -77.9203 288° West 163 188 12,200  Climbing Miami Center
03:59PM 24.4669 -77.9661 289° West 163 188 12,100 -60 Descending Miami Center
04:00PM 24.4811 -78.0119 289° West 163 188 12,100  Level Miami Center
04:01PM 24.4956 -78.0622 288° West 169 194 12,100  Level Miami Center
04:02PM 24.5117 -78.1150 289° West 169 194 12,200  Climbing Miami Center
04:03PM 24.5261 -78.1608 289° West 163 188 12,100 -60 Descending Miami Center
04:04PM 24.5403 -78.2089 288° West 163 188 12,100  Level Miami Center
04:05PM 24.5544 -78.2572 288° West 163 188 12,200  Climbing Miami Center
04:06PM 24.5706 -78.3122 288° West 168 193 12,200 -60 Level Miami Center
04:07PM 24.5867 -78.3650 289° West 168 193 12,100  Descending Miami Center
04:08PM 24.6031 -78.4131 291° West 173 199 12,200  Climbing Miami Center
04:09PM 24.6233 -78.4636 294° West 173 199 12,200 -60 Level Miami Center
04:10PM 24.6417 -78.5119 293° West 167 192 12,100 -60 Descending Miami Center
04:11PM 24.6661 -78.5603 299° West 172 198 12,100  Level Miami Center
04:12PM 24.6761 -78.6039 284° West 167 192 12,200  Climbing Miami Center
04:13PM 24.6964 -78.6497 296° West 167 192 12,200  Level Miami Center
04:14PM 24.7147 -78.6958 294° West 167 192 12,200  Level Miami Center
04:15PM 24.7308 -78.7442 290° West 172 198 12,200  Level Miami Center
04:16PM 24.7469 -78.7900 291° West 172 198 12,200  Level Miami Center
04:17PM 24.7567 -78.8361 283° West 182 209 12,200 -60 Level Miami Center
04:18PM 24.7811 -78.8867 298° West 177 204 12,100  Descending Miami Center
04:19PM 24.7972 -78.9306 292° West 170 196 12,200  Climbing Miami Center
04:20PM 24.8194 -78.9814 296° West 170 196 12,200 -60 Level Miami Center
04:21PM 24.8397 -79.0250 297° West 170 196 12,100  Descending Miami Center
04:22PM 24.8578 -79.0758 291° West 170 196 12,200  Climbing Miami Center
04:23PM 24.8761 -79.1197 295° West 170 196 12,200 -60 Level Miami Center
04:24PM 24.8878 -79.1703 284° West 170 196 12,100 -60 Descending Miami Center
04:25PM 24.8994 -79.2208 284° West 170 196 12,100  Level Miami Center
04:26PM 24.9114 -79.2669 286° West 164 189 12,200  Climbing Miami Center
04:27PM 24.9250 -79.3175 287° West 164 189 12,200 -60 Level Miami Center
04:28PM 24.9389 -79.3636 288° West 164 189 12,100  Descending Miami Center
04:29PM 24.9528 -79.4144 287° West 164 189 12,200  Climbing Miami Center
04:30PM 24.9644 -79.4628 285° West 164 189 12,200 -60 Level Miami Center
04:31PM 24.9761 -79.5111 285° West 164 189 12,100 -60 Descending Miami Center
04:32PM 24.9897 -79.5597 287° West 164 189 12,100  Level Miami Center
04:33PM 25.0036 -79.6125 286° West 164 189 12,200  Climbing Miami Center
04:34PM 25.0172 -79.6633 286° West 164 189 12,200  Level Miami Center
04:35PM 25.0308 -79.7142 286° West 164 189 12,200  Level Miami Center
04:36PM 25.0444 -79.7625 287° West 169 194 12,200  Level Miami Center
04:37PM 25.0581 -79.8133 286° West 169 194 12,200 -60 Level Miami Center
04:38PM 25.0697 -79.8642 284° West 169 194 12,100 -60 Descending Miami Center
04:39PM 25.0833 -79.9150 286° West 169 194 12,100  Level Miami Center
04:40PM 25.0969 -79.9633 287° West 169 194 12,200  Climbing Miami Center
04:41PM 25.1106 -80.0119 287° West 169 194 12,200 -60 Level Miami Center
04:42PM 25.1219 -80.0650 283° West 169 194 12,100 -60 Descending Miami Center
04:43PM 25.1375 -80.1183 288° West 169 194 12,100  Level Miami Center
04:44PM 25.1508 -80.1692 286° West 169 194 12,200  Climbing Miami Center
04:45PM 25.1622 -80.2222 283° West 169 194 12,100 -60 Descending Miami Center
04:46PM 25.1739 -80.2617 288° West 169 194 12,100  Level Miami Center
04:47PM 25.1872 -80.3169 285° West 169 194 12,200  Climbing Miami Center
04:48PM 25.2006 -80.3678 286° West 169 194 12,100 -60 Descending Miami Center
04:49PM 25.2139 -80.4189 286° West 169 194 12,100  Level Miami Center
04:50PM 25.2272 -80.4719 286° West 169 194 12,100  Level Miami Center
04:51PM 25.2428 -80.5231 289° West 169 194 12,100  Level Miami Center
04:52PM 25.2542 -80.5739 284° West 169 194 12,100  Level Miami Center
04:53PM 25.2675 -80.6225 287° West 169 194 12,100  Level Miami Center
04:54PM 25.2808 -80.6733 286° West 169 194 12,100  Level Miami Center
04:55PM 25.2942 -80.7222 287° West 164 189 12,100 -240 Level Miami Center
04:56PM 25.3075 -80.7731 286° West 164 189 11,700 -480 Descending Miami Center
04:57PM 25.3206 -80.8286 285° West 175 201 11,200 -600 Descending Miami Center
04:58PM 25.3375 -80.8911 287° West 192 221 10,500 -660 Descending Miami Center
04:59PM 25.3528 -80.9492 286° West 198 228 9,900 -600 Descending Miami Center
05:00PM 25.3700 -81.0072 288° West 203 234 9,300 -420 Descending Miami Center
05:01PM 25.4108 -81.0408 323° Northwest 187 215 9,100 -120 Descending Miami Center
05:02PM 25.4453 -81.0742 319° Northwest 175 201 9,100 -120 Level Miami Center
05:03PM 25.4819 -81.1100 319° Northwest 175 201 8,900 -420 Descending Miami Center
05:04PM 25.5183 -81.1481 317° Northwest 175 201 8,300 -600 Descending Miami Center
05:05PM 25.5589 -81.1864 320° Northwest 181 208 7,800 -420 Descending Miami Center
05:06PM 25.5994 -81.2269 318° Northwest 188 216 7,500 -300 Descending Miami Center
05:07PM 25.6381 -81.2653 318° Northwest 188 216 7,200 -300 Descending Miami Center
05:08PM 25.6786 -81.3036 320° Northwest 188 216 6,900 -300 Descending Miami Center
05:09PM 25.7214 -81.3444 319° Northwest 188 216 6,600 -300 Descending Miami Center
05:10PM 25.7600 -81.3803 320° Northwest 183 211 6,300 -300 Descending Miami Center
05:11PM 25.7983 -81.4189 318° Northwest 183 211 6,000 -300 Descending Miami Center
05:12PM 25.8369 -81.4572 318° Northwest 183 211 5,700 -420 Descending Miami Center
05:13PM 25.8772 -81.4981 318° Northwest 188 216 5,200 -600 Descending Miami Center
05:14PM 25.9178 -81.5386 318° Northwest 188 216 4,500 -600 Descending Miami Center
05:15PM 25.9583 -81.5794 318° Northwest 188 216 4,000 -600 Descending Miami Center
05:16PM 25.9967 -81.6181 318° Northwest 188 216 3,300 -600 Descending Miami Center
05:17PM 26.0350 -81.6589 316° Northwest 188 216 2,800 -660 Descending Miami Center
05:18PM 26.0756 -81.6928 323° Northwest 188 216 2,000 -840 Descending Miami Center
05:20PM 26.1228 -81.7395 318° Northwest  Level FlightAware Approximate
05:27PM 26.1500 -81.7667 318° Northwest  Level FlightAware Approximate
05:28PM 26.1524 -81.7756 318° Northwest  Level Estimated
05:29PM 26.1524 -81.7756 318° Northwest  Level Estimated
05:30PM 26.1524 -81.7756 318° Northwest  Level Estimated
05:31PM 26.1524 -81.7756 318° Northwest  Level Estimated